createdAt,value
2022-12-23T00:00:00.928Z,983.61
2022-12-23T00:01:01.029Z,983.65
2022-12-23T00:02:01.246Z,983.61
2022-12-23T00:03:01.077Z,983.58
2022-12-23T00:04:01.011Z,983.60
2022-12-23T00:05:00.928Z,983.61
2022-12-23T00:06:00.946Z,983.61
2022-12-23T00:07:01.093Z,983.61
2022-12-23T00:08:01.124Z,983.60
2022-12-23T00:09:00.755Z,983.61
2022-12-23T00:10:00.719Z,983.51
2022-12-23T00:11:00.819Z,983.44
2022-12-23T00:12:00.817Z,983.58
2022-12-23T00:13:01.045Z,983.59
2022-12-23T00:14:01.069Z,983.61
2022-12-23T00:15:00.884Z,983.62
2022-12-23T00:16:01.376Z,983.58
2022-12-23T00:17:01.224Z,983.58
2022-12-23T00:18:01.050Z,983.66
2022-12-23T00:19:01.098Z,983.59
2022-12-23T00:20:01.183Z,983.66
2022-12-23T00:21:06.590Z,983.61
2022-12-23T00:22:03.008Z,983.67
2022-12-23T00:23:00.861Z,983.71
2022-12-23T00:24:00.729Z,983.48
2022-12-23T00:25:00.839Z,983.58
2022-12-23T00:26:00.708Z,983.52
2022-12-23T00:27:00.634Z,983.44
2022-12-23T00:28:00.749Z,983.37
2022-12-23T00:29:00.650Z,983.32
2022-12-23T00:30:00.673Z,983.36
2022-12-23T00:31:00.663Z,983.34
2022-12-23T00:32:00.552Z,983.26
2022-12-23T00:33:00.592Z,983.35
2022-12-23T00:34:00.544Z,983.33
2022-12-23T00:35:00.660Z,983.35
2022-12-23T00:36:00.548Z,983.27
2022-12-23T00:37:00.454Z,983.21
2022-12-23T00:38:00.810Z,983.27
2022-12-23T00:39:00.527Z,983.28
2022-12-23T00:40:06.279Z,983.28
2022-12-23T00:41:02.468Z,983.25
2022-12-23T00:42:00.485Z,983.26
2022-12-23T00:43:00.635Z,983.15
2022-12-23T00:44:00.565Z,983.27
2022-12-23T00:45:00.505Z,983.31
2022-12-23T00:46:00.656Z,983.24
2022-12-23T00:47:00.577Z,983.27
2022-12-23T00:48:00.628Z,983.26
2022-12-23T00:49:00.351Z,983.35
2022-12-23T00:50:00.548Z,983.40
2022-12-23T00:51:00.440Z,983.33
2022-12-23T00:52:00.406Z,983.37
2022-12-23T00:53:00.502Z,983.37
2022-12-23T00:54:00.331Z,983.45
2022-12-23T00:55:00.314Z,983.36
2022-12-23T00:56:00.405Z,983.36
2022-12-23T00:57:00.366Z,983.36
2022-12-23T00:58:00.420Z,983.35
2022-12-23T00:59:00.330Z,983.34
2022-12-23T01:00:00.500Z,983.33
2022-12-23T01:01:00.232Z,983.36
2022-12-23T01:02:00.524Z,983.33
2022-12-23T01:03:00.453Z,983.34
2022-12-23T01:04:00.309Z,983.32
2022-12-23T01:05:00.380Z,983.35
2022-12-23T01:06:00.280Z,983.38
2022-12-23T01:07:00.334Z,983.43
2022-12-23T01:08:00.376Z,983.49
2022-12-23T01:09:00.474Z,983.47
2022-12-23T01:10:00.401Z,983.51
2022-12-23T01:11:00.450Z,983.51
2022-12-23T01:12:00.364Z,983.54
2022-12-23T01:13:00.618Z,983.52
2022-12-23T01:14:00.543Z,983.45
2022-12-23T01:15:00.528Z,983.47
2022-12-23T01:16:00.479Z,983.45
2022-12-23T01:17:00.488Z,983.47
2022-12-23T01:18:00.510Z,983.48
2022-12-23T01:19:00.548Z,983.46
2022-12-23T01:20:00.609Z,983.44
2022-12-23T01:21:00.287Z,983.39
2022-12-23T01:22:00.307Z,983.41
2022-12-23T01:23:00.312Z,983.42
2022-12-23T01:24:00.352Z,983.51
2022-12-23T01:25:00.378Z,983.54
2022-12-23T01:26:00.218Z,983.52
2022-12-23T01:27:00.260Z,983.57
2022-12-23T01:28:00.136Z,983.56
2022-12-23T01:29:00.325Z,983.56
2022-12-23T01:30:00.263Z,983.41
2022-12-23T01:31:00.231Z,983.42
2022-12-23T01:32:00.436Z,983.35
2022-12-23T01:33:00.370Z,983.36
2022-12-23T01:34:00.455Z,983.39
2022-12-23T01:35:00.519Z,983.31
2022-12-23T01:36:00.137Z,983.41
2022-12-23T01:37:00.342Z,983.43
2022-12-23T01:38:00.231Z,983.43
2022-12-23T01:39:00.235Z,983.47
2022-12-23T01:40:00.246Z,983.59
2022-12-23T01:41:00.248Z,983.59
2022-12-23T01:42:00.270Z,983.65
2022-12-23T01:43:00.289Z,983.68
2022-12-23T01:44:00.371Z,983.66
2022-12-23T01:45:00.267Z,983.69
2022-12-23T01:46:00.441Z,983.59
2022-12-23T01:47:00.339Z,983.68
2022-12-23T01:48:00.264Z,983.72
2022-12-23T01:49:00.171Z,983.79
2022-12-23T01:50:00.307Z,983.82
2022-12-23T01:51:00.449Z,983.72
2022-12-23T01:52:00.294Z,983.73
2022-12-23T01:53:04.763Z,983.78
2022-12-23T01:54:02.237Z,983.79
2022-12-23T01:55:00.290Z,983.81
2022-12-23T01:56:00.556Z,983.64
2022-12-23T01:57:00.258Z,983.64
2022-12-23T01:58:00.105Z,983.67
2022-12-23T01:59:00.115Z,983.67
2022-12-23T02:00:00.151Z,983.72
2022-12-23T02:01:00.110Z,983.62
2022-12-23T02:02:00.294Z,983.73
2022-12-23T02:03:00.649Z,983.82
2022-12-23T02:04:00.107Z,983.88
2022-12-23T02:05:00.150Z,983.87
2022-12-23T02:06:00.344Z,984.00
2022-12-23T02:06:59.996Z,983.86
2022-12-23T02:08:00.034Z,983.91
2022-12-23T02:09:00.110Z,983.91
2022-12-23T02:10:00.002Z,983.95
2022-12-23T02:11:00.277Z,983.89
2022-12-23T02:12:00.162Z,983.95
2022-12-23T02:13:00.146Z,983.94
2022-12-23T02:14:00.240Z,983.93
2022-12-23T02:14:59.946Z,983.95
2022-12-23T02:16:00.056Z,983.95
2022-12-23T02:17:00.098Z,983.92
2022-12-23T02:18:00.504Z,983.92
2022-12-23T02:19:00.032Z,983.84
2022-12-23T02:20:00.161Z,983.84
2022-12-23T02:21:00.051Z,983.94
2022-12-23T02:22:00.004Z,983.96
2022-12-23T02:22:59.984Z,984.01
2022-12-23T02:23:59.872Z,984.01
2022-12-23T02:24:59.879Z,984.05
2022-12-23T02:25:59.849Z,984.07
2022-12-23T02:27:00.167Z,984.06
2022-12-23T02:27:59.942Z,984.09
2022-12-23T02:28:59.971Z,984.07
2022-12-23T02:29:59.736Z,984.03
2022-12-23T02:30:59.857Z,984.06
2022-12-23T02:31:59.921Z,984.02
2022-12-23T02:32:59.929Z,984.12
2022-12-23T02:34:00.114Z,984.09
2022-12-23T02:34:59.755Z,984.05
2022-12-23T02:35:59.810Z,984.04
2022-12-23T02:36:59.904Z,984.06
2022-12-23T02:37:59.851Z,984.02
2022-12-23T02:38:59.858Z,984.01
2022-12-23T02:39:59.764Z,984.08
2022-12-23T02:40:59.616Z,984.04
2022-12-23T02:41:59.770Z,984.04
2022-12-23T02:42:59.619Z,984.05
2022-12-23T02:43:59.621Z,984.07
2022-12-23T02:44:59.744Z,984.05
2022-12-23T02:45:59.842Z,984.09
2022-12-23T02:46:59.932Z,984.13
2022-12-23T02:47:59.795Z,984.16
2022-12-23T02:48:59.782Z,984.09
2022-12-23T02:49:59.859Z,984.13
2022-12-23T02:51:00.060Z,984.10
2022-12-23T02:51:59.951Z,984.14
2022-12-23T02:53:00.385Z,984.21
2022-12-23T02:53:59.615Z,984.21
2022-12-23T02:54:59.615Z,984.19
2022-12-23T02:55:59.746Z,984.19
2022-12-23T02:56:59.785Z,984.16
2022-12-23T02:57:59.680Z,984.20
2022-12-23T02:58:59.576Z,984.16
2022-12-23T02:59:59.601Z,984.13
2022-12-23T03:00:59.844Z,984.11
2022-12-23T03:01:59.745Z,984.23
2022-12-23T03:02:59.696Z,984.19
2022-12-23T03:03:59.675Z,984.15
2022-12-23T03:05:00.975Z,984.16
2022-12-23T03:06:00.742Z,984.19
2022-12-23T03:07:02.969Z,984.15
2022-12-23T03:08:00.787Z,984.16
2022-12-23T03:08:59.569Z,984.15
2022-12-23T03:09:59.667Z,984.13
2022-12-23T03:10:59.643Z,984.19
2022-12-23T03:11:59.789Z,984.08
2022-12-23T03:12:59.727Z,984.14
2022-12-23T03:13:59.688Z,984.13
2022-12-23T03:14:59.605Z,984.12
2022-12-23T03:15:59.764Z,984.14
2022-12-23T03:16:59.523Z,984.08
2022-12-23T03:17:59.588Z,984.10
2022-12-23T03:18:59.549Z,984.12
2022-12-23T03:19:59.480Z,984.07
2022-12-23T03:21:07.387Z,984.13
2022-12-23T03:21:59.372Z,984.16
2022-12-23T03:23:00.021Z,984.14
2022-12-23T03:23:59.568Z,984.15
2022-12-23T03:24:59.260Z,984.12
2022-12-23T03:25:59.495Z,984.11
2022-12-23T03:26:59.366Z,984.15
2022-12-23T03:27:59.387Z,984.01
2022-12-23T03:28:59.370Z,984.13
2022-12-23T03:29:59.328Z,984.08
2022-12-23T03:30:59.718Z,984.09
2022-12-23T03:31:59.603Z,984.07
2022-12-23T03:32:59.755Z,984.03
2022-12-23T03:33:59.526Z,984.09
2022-12-23T03:34:59.565Z,984.03
2022-12-23T03:35:59.364Z,984.02
2022-12-23T03:36:59.406Z,984.12
2022-12-23T03:37:59.426Z,984.12
2022-12-23T03:38:59.605Z,984.04
2022-12-23T03:39:59.477Z,984.07
2022-12-23T03:40:59.544Z,984.09
2022-12-23T03:41:59.399Z,984.07
2022-12-23T03:42:59.573Z,984.01
2022-12-23T03:43:59.624Z,984.10
2022-12-23T03:45:36.250Z,984.04
2022-12-23T03:46:01.490Z,984.04
2022-12-23T03:46:59.456Z,984.03
2022-12-23T03:47:59.257Z,984.03
2022-12-23T03:48:59.278Z,984.04
2022-12-23T03:49:59.410Z,984.07
2022-12-23T03:50:59.244Z,984.13
2022-12-23T03:51:59.308Z,984.12
2022-12-23T03:52:59.688Z,984.11
2022-12-23T03:53:59.253Z,984.20
2022-12-23T03:54:59.250Z,984.24
2022-12-23T03:55:59.607Z,984.15
2022-12-23T03:56:59.338Z,984.18
2022-12-23T03:57:59.580Z,984.26
2022-12-23T03:58:59.321Z,984.25
2022-12-23T03:59:59.277Z,984.29
2022-12-23T04:00:59.381Z,984.33
2022-12-23T04:01:59.604Z,984.38
2022-12-23T04:02:59.704Z,984.26
2022-12-23T04:03:59.309Z,984.28
2022-12-23T04:04:59.438Z,984.25
2022-12-23T04:05:59.590Z,984.32
2022-12-23T04:06:59.416Z,984.38
2022-12-23T04:07:59.225Z,984.34
2022-12-23T04:08:59.290Z,984.31
2022-12-23T04:09:59.256Z,984.35
2022-12-23T04:10:59.335Z,984.39
2022-12-23T04:11:59.228Z,984.40
2022-12-23T04:12:59.976Z,984.40
2022-12-23T04:13:59.215Z,984.45
2022-12-23T04:14:59.697Z,984.41
2022-12-23T04:15:59.273Z,984.49
2022-12-23T04:16:59.179Z,984.54
2022-12-23T04:17:59.202Z,984.49
2022-12-23T04:18:59.129Z,984.51
2022-12-23T04:19:59.027Z,984.63
2022-12-23T04:20:59.010Z,984.55
2022-12-23T04:21:59.039Z,984.66
2022-12-23T04:22:59.075Z,984.71
2022-12-23T04:23:59.139Z,984.75
2022-12-23T04:24:59.176Z,984.68
2022-12-23T04:25:59.864Z,984.56
2022-12-23T04:26:59.073Z,984.58
2022-12-23T04:27:59.597Z,984.61
2022-12-23T04:28:59.084Z,984.65
2022-12-23T04:29:58.903Z,984.61
2022-12-23T04:30:58.965Z,984.62
2022-12-23T04:31:58.923Z,984.59
2022-12-23T04:32:58.845Z,984.63
2022-12-23T04:33:59.125Z,984.68
2022-12-23T04:34:58.883Z,984.60
2022-12-23T04:35:58.917Z,984.64
2022-12-23T04:36:58.941Z,984.72
2022-12-23T04:37:59.377Z,984.76
2022-12-23T04:38:59.543Z,984.68
2022-12-23T04:39:59.271Z,984.68
2022-12-23T04:40:59.374Z,984.66
2022-12-23T04:41:59.136Z,984.63
2022-12-23T04:42:59.318Z,984.68
2022-12-23T04:43:59.116Z,984.63
2022-12-23T04:44:59.122Z,984.68
2022-12-23T04:45:59.084Z,984.56
2022-12-23T04:46:59.059Z,984.59
2022-12-23T04:47:59.024Z,984.64
2022-12-23T04:48:58.968Z,984.55
2022-12-23T04:49:59.137Z,984.56
2022-12-23T04:50:58.941Z,984.55
2022-12-23T04:51:59.026Z,984.63
2022-12-23T04:52:59.216Z,984.61
2022-12-23T04:53:59.009Z,984.52
2022-12-23T04:54:58.981Z,984.55
2022-12-23T04:55:58.982Z,984.56
2022-12-23T04:56:58.885Z,984.55
2022-12-23T04:57:59.158Z,984.47
2022-12-23T04:58:59.100Z,984.43
2022-12-23T04:59:58.889Z,984.47
2022-12-23T05:00:59.246Z,984.53
2022-12-23T05:01:59.011Z,984.50
2022-12-23T05:02:59.173Z,984.44
2022-12-23T05:03:59.100Z,984.51
2022-12-23T05:04:58.969Z,984.60
2022-12-23T05:05:58.698Z,984.57
2022-12-23T05:06:58.965Z,984.53
2022-12-23T05:07:59.021Z,984.52
2022-12-23T05:08:58.904Z,984.57
2022-12-23T05:09:59.192Z,984.58
2022-12-23T05:10:59.448Z,984.62
2022-12-23T05:11:58.644Z,984.63
2022-12-23T05:12:58.690Z,984.63
2022-12-23T05:13:58.452Z,984.63
2022-12-23T05:14:58.603Z,984.61
2022-12-23T05:15:58.894Z,984.65
2022-12-23T05:17:05.266Z,984.58
2022-12-23T05:18:00.643Z,984.72
2022-12-23T05:18:58.659Z,984.67
2022-12-23T05:19:58.613Z,984.72
2022-12-23T05:20:58.614Z,984.78
2022-12-23T05:21:58.820Z,984.78
2022-12-23T05:22:58.848Z,984.85
2022-12-23T05:23:58.875Z,984.77
2022-12-23T05:32:25.439Z,984.79
2022-12-23T05:55:41.169Z,984.92
2022-12-23T05:56:42.575Z,984.93
2022-12-23T05:57:42.604Z,985.00
2022-12-23T05:58:42.607Z,984.96
2022-12-23T05:59:42.727Z,985.02
2022-12-23T06:00:42.651Z,985.01
2022-12-23T06:01:42.679Z,985.01
2022-12-23T06:02:44.395Z,985.05
2022-12-23T06:03:42.660Z,985.05
2022-12-23T06:04:42.678Z,985.07
2022-12-23T06:05:42.443Z,985.03
2022-12-23T06:06:42.416Z,985.04
2022-12-23T06:07:42.406Z,985.07
2022-12-23T06:08:42.363Z,985.09
2022-12-23T06:09:43.359Z,985.06
2022-12-23T06:10:42.371Z,985.08
2022-12-23T06:11:42.469Z,985.08
2022-12-23T06:12:42.353Z,985.11
2022-12-23T06:13:42.345Z,985.15
2022-12-23T06:14:42.325Z,985.21
2022-12-23T06:15:42.422Z,985.11
2022-12-23T06:16:42.402Z,985.13
2022-12-23T06:17:42.399Z,985.08
2022-12-23T06:18:42.146Z,985.15
2022-12-23T06:19:42.250Z,985.14
2022-12-23T06:20:42.166Z,985.10
2022-12-23T06:21:42.187Z,985.18
2022-12-23T06:22:42.213Z,985.03
2022-12-23T06:23:42.146Z,985.06
2022-12-23T06:24:42.176Z,985.06
2022-12-23T06:25:42.150Z,985.08
2022-12-23T06:26:42.180Z,985.02
2022-12-23T06:27:42.198Z,985.05
2022-12-23T06:28:42.325Z,985.02
2022-12-23T06:29:42.102Z,985.13
2022-12-23T06:30:42.266Z,985.11
2022-12-23T06:31:42.285Z,985.11
2022-12-23T06:32:42.287Z,985.09
2022-12-23T06:33:42.426Z,985.09
2022-12-23T06:34:42.229Z,985.13
2022-12-23T06:35:42.178Z,985.16
2022-12-23T06:36:42.158Z,985.17
2022-12-23T06:37:42.108Z,985.14
2022-12-23T06:38:43.345Z,985.17
2022-12-23T06:39:42.120Z,985.20
2022-12-23T06:40:42.090Z,985.22
2022-12-23T06:42:03.113Z,985.27
2022-12-23T06:42:42.005Z,985.34
2022-12-23T06:43:42.232Z,985.29
2022-12-23T06:44:42.084Z,985.34
2022-12-23T06:45:42.083Z,985.42
2022-12-23T06:46:42.054Z,985.43
2022-12-23T06:47:42.120Z,985.40
2022-12-23T06:57:36.414Z,985.66
2022-12-23T06:58:10.801Z,985.69
2022-12-23T06:59:10.697Z,985.66
2022-12-23T07:00:10.696Z,985.68
2022-12-23T07:01:10.745Z,985.73
2022-12-23T07:02:10.850Z,985.75
2022-12-23T07:03:51.898Z,985.71
2022-12-23T07:04:10.527Z,985.71
2022-12-23T07:05:11.789Z,985.76
2022-12-23T07:06:15.646Z,985.82
2022-12-23T07:38:30.076Z,985.75
2022-12-23T07:38:57.584Z,985.73
2022-12-23T07:39:31.790Z,985.70
2022-12-23T07:40:31.860Z,985.68
2022-12-23T07:41:31.870Z,985.70
2022-12-23T07:42:47.369Z,985.70
2022-12-23T07:43:33.760Z,985.74
2022-12-23T07:44:31.762Z,985.78
2022-12-23T07:45:31.915Z,985.70
2022-12-23T07:46:31.880Z,985.59
2022-12-23T07:47:31.659Z,985.60
2022-12-23T07:48:31.701Z,985.60
2022-12-23T07:49:31.676Z,985.61
2022-12-23T07:50:31.699Z,985.64
2022-12-23T07:51:31.645Z,985.59
2022-12-23T07:52:31.650Z,985.60
2022-12-23T07:53:31.652Z,985.60
2022-12-23T07:54:31.687Z,985.64
2022-12-23T07:55:31.640Z,985.69
2022-12-23T07:56:31.665Z,985.77
2022-12-23T07:58:31.599Z,985.64
2022-12-23T07:59:31.635Z,985.60
2022-12-23T08:00:31.611Z,985.64
2022-12-23T08:01:31.734Z,985.57
2022-12-23T08:02:31.831Z,985.62
2022-12-23T08:03:31.702Z,985.77
2022-12-23T08:04:31.780Z,985.77
2022-12-23T08:05:35.606Z,985.82
2022-12-23T23:14:12.043Z,984.60
2022-12-23T23:15:12.936Z,984.65
2022-12-23T23:16:12.849Z,984.74
2022-12-23T23:17:12.963Z,984.74
2022-12-23T23:18:12.933Z,984.81
2022-12-23T23:19:12.941Z,984.82
2022-12-23T23:20:12.859Z,984.81
2022-12-23T23:21:12.795Z,984.79
2022-12-23T23:22:12.906Z,984.67
2022-12-23T23:23:13.896Z,984.86
2022-12-23T23:24:13.090Z,984.83
2022-12-23T23:25:12.786Z,984.84
2022-12-23T23:26:12.783Z,984.84
2022-12-23T23:27:12.819Z,984.86
2022-12-23T23:28:12.821Z,984.83
2022-12-23T23:29:12.776Z,984.81
2022-12-23T23:30:13.030Z,984.86
2022-12-23T23:32:15.597Z,984.84
2022-12-23T23:33:12.684Z,984.83
2022-12-23T23:34:12.694Z,984.90
2022-12-23T23:35:12.761Z,984.99
2022-12-23T23:36:12.699Z,985.00
2022-12-23T23:37:12.742Z,985.00
2022-12-23T23:38:12.669Z,985.01
2022-12-23T23:39:12.754Z,985.12
2022-12-23T23:40:12.644Z,985.12
2022-12-23T23:41:16.094Z,985.13
2022-12-23T23:42:13.724Z,985.12
2022-12-23T23:43:12.603Z,985.12
2022-12-23T23:44:12.646Z,985.12
2022-12-23T23:45:12.651Z,985.18
2022-12-23T23:46:12.740Z,985.26
2022-12-23T23:47:12.544Z,985.24
2022-12-23T23:48:12.575Z,985.32
2022-12-23T23:49:12.577Z,985.34
2022-12-23T23:50:12.525Z,985.31
2022-12-23T23:52:10.608Z,985.28
2022-12-23T23:52:12.529Z,985.32
2022-12-23T23:53:12.531Z,985.41
2022-12-23T23:54:13.329Z,985.33
2022-12-23T23:55:12.588Z,985.36
2022-12-23T23:56:12.577Z,985.40
2022-12-23T23:57:12.530Z,985.29
2022-12-23T23:58:12.557Z,985.37
2022-12-23T23:59:13.018Z,985.36
